Garden Spring, Nevada Weather observations

Data are for 10 minute period ending at time listed.
 Day   Time    Ave.   Ave.  Ave.  Vector   Max.   Stn.    Total    Solar   Ave.  
  of    of     Air    Rel.  Wind   Wind    Wind   Baro.  Precip.   Rad.    Soil  
Year   Day     Temp.  Hum.  Speed  Dir.    Gust   Pres.                    Temp. 
2014   (PST)    F      %     mph   deg.    mph     mb.     in.     W/m2     F    
--------------------------------------------------------------------------------- 
 296   18:00   58.7    41    4.1   268      5.7   855.3    0.00       1    68.8  
 296   19:00   56.9    43    4.5   279      6.0   855.6    0.00       0    68.2  
 296   20:00   56.5    44    4.5   270      6.5   855.6    0.00       0    67.3  
 296   21:00   56.8    43    4.5   270      6.2   855.8    0.00       0    66.4  
 296   22:00   57.0    43    4.7   267      6.6   856.1    0.00       0    65.6  
 296   23:00   57.1    43    4.7   268      6.5   856.2    0.00       0    64.8  
 297    0:00   56.3    44    4.9   268      6.6   856.3    0.00       0    64.1  
 297    1:00   55.7    45    4.7   271      6.7   856.4    0.00       0    63.4  
 297    2:00   55.1    46    4.5   276      6.3   856.3    0.00       0    62.8  
 297    3:00   54.4    47    4.5   270      5.8   856.1    0.00       0    62.2  
 297    4:00   53.9    48    4.6   270      6.2   856.2    0.00       0    61.7  
 297    5:00   53.4    50    4.6   272      6.0   856.5    0.00       0    61.2  
 297    6:00   53.6    49    5.0   273      7.1   856.8    0.00       1    60.8  
 297    7:00   57.7    44    4.1   270      6.8   857.3    0.00      79    60.7  
 297    8:00   68.9    31    1.4   181      4.9   857.8    0.00     266    61.0  
 297    9:00   71.5    27    3.1   100      7.3   858.2    0.00     443    60.8  
 297   10:00   72.8    27    4.3   115     10.8   858.2    0.00     582    61.0  
 297   11:00   73.8    26    5.3   133     12.4   857.9    0.00     667    62.4  
 297   12:00   74.7    26    6.3   156     13.8   857.3    0.00     693    64.5  
 297   13:00   75.2    25    6.7   156     13.8   856.6    0.00     658    66.8  
 297   14:00   75.6    24    6.1   154     14.4   856.0    0.00     561    68.7  
 297   15:00   75.5    23    6.7   159     12.8   855.8    0.00     415    70.1  
 297   16:00   74.4    24    4.5   173      9.8   855.5    0.00     234    70.9  
 297   17:00   66.6    30    2.3   241      3.6   855.3    0.00      26    70.7  

Return to Garden Spring, Nevada graphs page.


Western Regional Climate Center,wrcc@dri.edu